sensor_id;sensor_type;location;lat;lon;timestamp;pressure;altitude;pressure_sealevel;temperature;humidity
57234;BME280;43090;52.604;13.318;2023-05-25T00:00:10;101814.28;;;11.30;77.75
57234;BME280;43090;52.604;13.318;2023-05-25T00:02:37;101804.88;;;11.23;78.04
57234;BME280;43090;52.604;13.318;2023-05-25T00:05:12;101802.63;;;11.31;78.10
57234;BME280;43090;52.604;13.318;2023-05-25T00:07:39;101802.78;;;11.28;78.18
57234;BME280;43090;52.604;13.318;2023-05-25T00:10:06;101799.06;;;11.31;78.72
57234;BME280;43090;52.604;13.318;2023-05-25T00:12:33;101802.09;;;11.41;78.56
57234;BME280;43090;52.604;13.318;2023-05-25T00:14:59;101802.06;;;11.57;78.58
57234;BME280;43090;52.604;13.318;2023-05-25T00:17:26;101803.88;;;11.40;79.44
57234;BME280;43090;52.604;13.318;2023-05-25T00:19:55;101797.13;;;11.49;79.52
57234;BME280;43090;52.604;13.318;2023-05-25T00:22:23;101800.72;;;11.64;78.98
57234;BME280;43090;52.604;13.318;2023-05-25T00:24:50;101811.03;;;11.72;79.07
57234;BME280;43090;52.604;13.318;2023-05-25T00:27:16;101797.44;;;11.75;78.95
57234;BME280;43090;52.604;13.318;2023-05-25T00:29:43;101797.25;;;11.78;79.08
57234;BME280;43090;52.604;13.318;2023-05-25T00:32:09;101801.94;;;11.74;79.44
57234;BME280;43090;52.604;13.318;2023-05-25T00:34:36;101801.66;;;11.79;79.11
57234;BME280;43090;52.604;13.318;2023-05-25T00:37:03;101801.13;;;11.88;78.44
57234;BME280;43090;52.604;13.318;2023-05-25T00:39:30;101795.47;;;11.93;78.00
57234;BME280;43090;52.604;13.318;2023-05-25T00:41:56;101795.38;;;11.94;78.61
57234;BME280;43090;52.604;13.318;2023-05-25T00:44:23;101790.09;;;11.93;78.46
57234;BME280;43090;52.604;13.318;2023-05-25T00:46:51;101794.19;;;12.00;78.00
57234;BME280;43090;52.604;13.318;2023-05-25T00:49:19;101800.25;;;11.88;77.82
57234;BME280;43090;52.604;13.318;2023-05-25T00:51:46;101798.50;;;11.87;78.02
57234;BME280;43090;52.604;13.318;2023-05-25T00:54:16;101796.41;;;11.92;77.68
57234;BME280;43090;52.604;13.318;2023-05-25T00:56:46;101791.53;;;11.84;77.19
57234;BME280;43090;52.604;13.318;2023-05-25T00:59:16;101792.34;;;11.70;78.04
57234;BME280;43090;52.604;13.318;2023-05-25T01:01:46;101795.41;;;11.78;77.47
57234;BME280;43090;52.604;13.318;2023-05-25T01:04:14;101793.03;;;11.74;77.14
57234;BME280;43090;52.604;13.318;2023-05-25T01:06:43;101786.38;;;11.65;77.21
57234;BME280;43090;52.604;13.318;2023-05-25T01:09:15;101787.22;;;11.65;76.57
57234;BME280;43090;52.604;13.318;2023-05-25T01:11:47;101799.47;;;11.55;77.29
57234;BME280;43090;52.604;13.318;2023-05-25T01:14:18;101797.56;;;11.57;77.25
57234;BME280;43090;52.604;13.318;2023-05-25T01:16:46;101796.53;;;11.44;78.01
57234;BME280;43090;52.604;13.318;2023-05-25T01:19:13;101798.72;;;11.37;77.85
57234;BME280;43090;52.604;13.318;2023-05-25T01:21:53;101800.88;;;11.46;77.76
57234;BME280;43090;52.604;13.318;2023-05-25T01:24:29;101789.44;;;11.43;77.58
57234;BME280;43090;52.604;13.318;2023-05-25T01:29:46;101797.25;;;11.31;77.98
57234;BME280;43090;52.604;13.318;2023-05-25T01:32:14;101794.59;;;11.15;78.07
57234;BME280;43090;52.604;13.318;2023-05-25T01:34:44;101799.44;;;11.09;78.33
57234;BME280;43090;52.604;13.318;2023-05-25T01:54:10;101803.13;;;10.41;82.54
57234;BME280;43090;52.604;13.318;2023-05-25T01:56:38;101800.25;;;10.61;81.87
57234;BME280;43090;52.604;13.318;2023-05-25T01:59:08;101799.31;;;10.62;81.56
57234;BME280;43090;52.604;13.318;2023-05-25T02:01:35;101801.91;;;10.64;80.91
57234;BME280;43090;52.604;13.318;2023-05-25T02:04:02;101792.41;;;10.74;80.34
57234;BME280;43090;52.604;13.318;2023-05-25T02:06:29;101801.13;;;10.78;80.20
57234;BME280;43090;52.604;13.318;2023-05-25T02:08:56;101793.97;;;10.62;80.96
57234;BME280;43090;52.604;13.318;2023-05-25T02:11:22;101798.44;;;10.78;80.35
57234;BME280;43090;52.604;13.318;2023-05-25T02:13:48;101792.66;;;10.70;80.19
57234;BME280;43090;52.604;13.318;2023-05-25T02:16:15;101788.75;;;10.75;79.93
57234;BME280;43090;52.604;13.318;2023-05-25T02:18:42;101799.66;;;10.72;79.97
57234;BME280;43090;52.604;13.318;2023-05-25T02:21:10;101803.28;;;10.71;80.16
57234;BME280;43090;52.604;13.318;2023-05-25T02:23:37;101795.59;;;10.65;79.81
57234;BME280;43090;52.604;13.318;2023-05-25T02:26:03;101813.84;;;10.74;79.80
57234;BME280;43090;52.604;13.318;2023-05-25T02:28:30;101811.41;;;10.86;79.29
57234;BME280;43090;52.604;13.318;2023-05-25T02:30:56;101811.25;;;10.89;78.83
57234;BME280;43090;52.604;13.318;2023-05-25T02:33:23;101797.69;;;10.76;78.69
57234;BME280;43090;52.604;13.318;2023-05-25T02:35:49;101808.31;;;10.77;79.02
57234;BME280;43090;52.604;13.318;2023-05-25T02:38:16;101820.16;;;10.89;78.86
57234;BME280;43090;52.604;13.318;2023-05-25T02:40:44;101812.28;;;10.86;78.80
57234;BME280;43090;52.604;13.318;2023-05-25T02:43:11;101807.09;;;10.83;78.63
57234;BME280;43090;52.604;13.318;2023-05-25T02:45:37;101812.47;;;10.83;78.38
57234;BME280;43090;52.604;13.318;2023-05-25T02:48:04;101805.53;;;10.79;78.87
57234;BME280;43090;52.604;13.318;2023-05-25T02:50:30;101802.06;;;10.77;78.82
57234;BME280;43090;52.604;13.318;2023-05-25T02:52:57;101793.09;;;10.78;78.74
57234;BME280;43090;52.604;13.318;2023-05-25T02:55:23;101804.75;;;10.77;79.22
57234;BME280;43090;52.604;13.318;2023-05-25T02:57:51;101804.59;;;10.80;78.78
57234;BME280;43090;52.604;13.318;2023-05-25T03:00:17;101807.81;;;10.87;78.44
57234;BME280;43090;52.604;13.318;2023-05-25T03:02:46;101815.94;;;10.85;78.22
57234;BME280;43090;52.604;13.318;2023-05-25T03:05:14;101816.06;;;10.82;78.94
57234;BME280;43090;52.604;13.318;2023-05-25T03:07:41;101819.13;;;10.76;78.86
57234;BME280;43090;52.604;13.318;2023-05-25T03:10:09;101812.88;;;10.75;78.86
57234;BME280;43090;52.604;13.318;2023-05-25T03:12:36;101811.22;;;10.73;78.84
57234;BME280;43090;52.604;13.318;2023-05-25T03:15:03;101810.69;;;10.66;79.37
57234;BME280;43090;52.604;13.318;2023-05-25T03:17:30;101812.44;;;10.67;79.21
57234;BME280;43090;52.604;13.318;2023-05-25T03:19:56;101814.88;;;10.72;78.59
57234;BME280;43090;52.604;13.318;2023-05-25T03:22:23;101819.00;;;10.61;79.21
57234;BME280;43090;52.604;13.318;2023-05-25T03:24:49;101820.56;;;10.65;79.22
57234;BME280;43090;52.604;13.318;2023-05-25T03:27:16;101819.13;;;10.76;78.70
57234;BME280;43090;52.604;13.318;2023-05-25T03:29:43;101822.56;;;10.78;78.60
57234;BME280;43090;52.604;13.318;2023-05-25T03:32:09;101829.47;;;10.82;78.33
57234;BME280;43090;52.604;13.318;2023-05-25T03:34:36;101816.31;;;10.61;78.82
57234;BME280;43090;52.604;13.318;2023-05-25T03:37:02;101822.97;;;10.70;78.38
57234;BME280;43090;52.604;13.318;2023-05-25T03:39:29;101816.53;;;10.74;78.33
57234;BME280;43090;52.604;13.318;2023-05-25T03:41:55;101816.59;;;10.73;78.57
57234;BME280;43090;52.604;13.318;2023-05-25T03:44:23;101823.31;;;10.64;78.92
57234;BME280;43090;52.604;13.318;2023-05-25T03:46:50;101817.25;;;10.60;78.96
57234;BME280;43090;52.604;13.318;2023-05-25T03:49:16;101824.97;;;10.66;78.72
57234;BME280;43090;52.604;13.318;2023-05-25T03:51:43;101826.84;;;10.64;79.03
57234;BME280;43090;52.604;13.318;2023-05-25T03:54:09;101833.34;;;10.60;79.59
57234;BME280;43090;52.604;13.318;2023-05-25T03:56:36;101838.19;;;10.70;79.34
57234;BME280;43090;52.604;13.318;2023-05-25T03:59:02;101841.63;;;10.56;79.81
57234;BME280;43090;52.604;13.318;2023-05-25T04:01:29;101831.06;;;10.53;80.08
57234;BME280;43090;52.604;13.318;2023-05-25T04:03:56;101852.19;;;10.75;79.89
57234;BME280;43090;52.604;13.318;2023-05-25T04:06:22;101856.13;;;10.85;79.99
57234;BME280;43090;52.604;13.318;2023-05-25T04:08:51;101849.41;;;10.60;80.74
57234;BME280;43090;52.604;13.318;2023-05-25T04:11:18;101855.81;;;10.74;80.22
57234;BME280;43090;52.604;13.318;2023-05-25T04:13:45;101862.50;;;10.82;79.93
57234;BME280;43090;52.604;13.318;2023-05-25T04:16:12;101867.91;;;10.98;79.86
57234;BME280;43090;52.604;13.318;2023-05-25T04:18:38;101852.91;;;10.78;80.45
57234;BME280;43090;52.604;13.318;2023-05-25T04:21:05;101850.13;;;10.80;80.22
57234;BME280;43090;52.604;13.318;2023-05-25T04:23:31;101857.59;;;10.91;80.54
57234;BME280;43090;52.604;13.318;2023-05-25T04:25:59;101862.25;;;10.87;80.69
57234;BME280;43090;52.604;13.318;2023-05-25T04:28:26;101858.44;;;10.91;80.74
57234;BME280;43090;52.604;13.318;2023-05-25T04:30:53;101837.19;;;10.88;80.63
57234;BME280;43090;52.604;13.318;2023-05-25T04:33:22;101866.00;;;11.16;80.51
57234;BME280;43090;52.604;13.318;2023-05-25T04:35:49;101866.25;;;11.12;81.50
57234;BME280;43090;52.604;13.318;2023-05-25T04:38:16;101863.25;;;11.02;81.77
57234;BME280;43090;52.604;13.318;2023-05-25T04:40:43;101865.94;;;11.18;81.61
57234;BME280;43090;52.604;13.318;2023-05-25T04:43:11;101865.56;;;11.24;81.71
57234;BME280;43090;52.604;13.318;2023-05-25T04:45:38;101869.88;;;11.27;81.29
57234;BME280;43090;52.604;13.318;2023-05-25T04:48:05;101868.72;;;11.32;81.74
57234;BME280;43090;52.604;13.318;2023-05-25T04:50:32;101855.53;;;11.28;82.29
57234;BME280;43090;52.604;13.318;2023-05-25T04:52:59;101860.66;;;11.48;81.48
57234;BME280;43090;52.604;13.318;2023-05-25T04:55:25;101862.63;;;11.45;81.80
57234;BME280;43090;52.604;13.318;2023-05-25T04:57:52;101852.09;;;11.42;82.64
57234;BME280;43090;52.604;13.318;2023-05-25T05:00:20;101859.84;;;11.62;81.84
57234;BME280;43090;52.604;13.318;2023-05-25T05:02:47;101866.41;;;11.73;81.55
57234;BME280;43090;52.604;13.318;2023-05-25T05:05:14;101866.44;;;11.57;82.76
57234;BME280;43090;52.604;13.318;2023-05-25T05:07:40;101862.72;;;11.59;83.30
57234;BME280;43090;52.604;13.318;2023-05-25T05:10:07;101854.53;;;11.77;82.82
57234;BME280;43090;52.604;13.318;2023-05-25T05:12:34;101858.56;;;11.70;83.98
57234;BME280;43090;52.604;13.318;2023-05-25T05:15:00;101857.25;;;11.61;84.43
57234;BME280;43090;52.604;13.318;2023-05-25T05:17:27;101844.22;;;11.85;83.23
57234;BME280;43090;52.604;13.318;2023-05-25T05:19:56;101850.84;;;11.63;85.11
57234;BME280;43090;52.604;13.318;2023-05-25T05:22:22;101855.81;;;12.02;83.52
57234;BME280;43090;52.604;13.318;2023-05-25T05:24:49;101852.00;;;11.90;83.79
57234;BME280;43090;52.604;13.318;2023-05-25T05:27:16;101861.69;;;12.08;83.46
57234;BME280;43090;52.604;13.318;2023-05-25T05:29:42;101871.94;;;12.02;83.59
57234;BME280;43090;52.604;13.318;2023-05-25T05:32:09;101862.56;;;11.93;84.30
57234;BME280;43090;52.604;13.318;2023-05-25T05:34:35;101854.59;;;12.07;83.38
57234;BME280;43090;52.604;13.318;2023-05-25T05:37:02;101873.72;;;12.31;82.98
57234;BME280;43090;52.604;13.318;2023-05-25T05:39:29;101856.97;;;12.42;82.12
57234;BME280;43090;52.604;13.318;2023-05-25T05:41:57;101878.56;;;12.55;82.05
57234;BME280;43090;52.604;13.318;2023-05-25T05:44:24;101879.13;;;12.60;82.38
57234;BME280;43090;52.604;13.318;2023-05-25T05:46:55;101881.81;;;12.60;82.23
57234;BME280;43090;52.604;13.318;2023-05-25T05:49:30;101885.47;;;12.74;82.10
57234;BME280;43090;52.604;13.318;2023-05-25T05:51:57;101889.53;;;12.81;82.43
57234;BME280;43090;52.604;13.318;2023-05-25T05:54:24;101878.56;;;12.84;82.29
57234;BME280;43090;52.604;13.318;2023-05-25T05:56:53;101893.28;;;12.93;81.92
57234;BME280;43090;52.604;13.318;2023-05-25T05:59:20;101880.88;;;13.05;82.18
57234;BME280;43090;52.604;13.318;2023-05-25T06:01:47;101890.84;;;13.31;81.50
57234;BME280;43090;52.604;13.318;2023-05-25T06:04:13;101892.19;;;13.39;80.66
57234;BME280;43090;52.604;13.318;2023-05-25T06:06:41;101877.78;;;13.40;80.38
57234;BME280;43090;52.604;13.318;2023-05-25T06:09:08;101897.84;;;13.48;78.96
57234;BME280;43090;52.604;13.318;2023-05-25T06:11:35;101887.47;;;13.42;78.81
57234;BME280;43090;52.604;13.318;2023-05-25T06:14:02;101891.88;;;13.58;78.88
57234;BME280;43090;52.604;13.318;2023-05-25T06:16:29;101894.03;;;13.38;80.35
57234;BME280;43090;52.604;13.318;2023-05-25T06:18:55;101887.03;;;13.63;79.15
57234;BME280;43090;52.604;13.318;2023-05-25T06:21:22;101895.06;;;13.77;79.04
57234;BME280;43090;52.604;13.318;2023-05-25T06:23:48;101891.94;;;13.83;79.03
57234;BME280;43090;52.604;13.318;2023-05-25T06:26:15;101901.63;;;13.73;78.41
57234;BME280;43090;52.604;13.318;2023-05-25T06:28:41;101895.63;;;13.82;77.83
57234;BME280;43090;52.604;13.318;2023-05-25T06:31:08;101896.22;;;14.00;77.43
57234;BME280;43090;52.604;13.318;2023-05-25T06:33:34;101892.22;;;13.93;76.82
57234;BME280;43090;52.604;13.318;2023-05-25T06:36:01;101897.00;;;14.03;77.02
57234;BME280;43090;52.604;13.318;2023-05-25T06:38:28;101900.63;;;14.02;76.51
57234;BME280;43090;52.604;13.318;2023-05-25T06:40:54;101894.34;;;14.28;76.14
57234;BME280;43090;52.604;13.318;2023-05-25T06:43:21;101894.88;;;14.33;76.36
57234;BME280;43090;52.604;13.318;2023-05-25T06:45:48;101900.91;;;14.24;77.70
57234;BME280;43090;52.604;13.318;2023-05-25T06:48:15;101893.41;;;14.42;76.66
57234;BME280;43090;52.604;13.318;2023-05-25T06:50:41;101900.53;;;14.43;76.87
57234;BME280;43090;52.604;13.318;2023-05-25T06:53:08;101910.03;;;14.62;76.36
57234;BME280;43090;52.604;13.318;2023-05-25T06:55:36;101899.25;;;14.88;73.75
57234;BME280;43090;52.604;13.318;2023-05-25T06:58:02;101910.66;;;15.04;74.19
57234;BME280;43090;52.604;13.318;2023-05-25T07:00:29;101905.59;;;15.12;72.82
57234;BME280;43090;52.604;13.318;2023-05-25T07:02:55;101907.00;;;15.05;72.80
57234;BME280;43090;52.604;13.318;2023-05-25T07:05:22;101903.50;;;15.29;72.74
57234;BME280;43090;52.604;13.318;2023-05-25T07:07:49;101919.50;;;15.19;73.27
57234;BME280;43090;52.604;13.318;2023-05-25T07:10:16;101907.88;;;15.06;69.62
57234;BME280;43090;52.604;13.318;2023-05-25T07:12:42;101920.91;;;15.12;68.26
57234;BME280;43090;52.604;13.318;2023-05-25T07:15:09;101920.50;;;15.55;66.65
57234;BME280;43090;52.604;13.318;2023-05-25T07:17:36;101915.25;;;15.41;68.67
57234;BME280;43090;52.604;13.318;2023-05-25T07:20:03;101903.28;;;15.69;67.58
57234;BME280;43090;52.604;13.318;2023-05-25T07:22:31;101915.09;;;15.55;65.28
57234;BME280;43090;52.604;13.318;2023-05-25T07:24:57;101916.97;;;15.79;64.78
57234;BME280;43090;52.604;13.318;2023-05-25T07:27:24;101918.69;;;15.80;66.13
57234;BME280;43090;52.604;13.318;2023-05-25T07:29:51;101918.50;;;15.70;64.68
57234;BME280;43090;52.604;13.318;2023-05-25T07:32:17;101925.06;;;16.03;64.47
57234;BME280;43090;52.604;13.318;2023-05-25T07:34:44;101922.03;;;16.08;65.85
57234;BME280;43090;52.604;13.318;2023-05-25T07:37:10;101928.94;;;16.12;65.01
57234;BME280;43090;52.604;13.318;2023-05-25T07:39:37;101922.16;;;16.42;65.04
57234;BME280;43090;52.604;13.318;2023-05-25T07:42:05;101917.38;;;17.15;60.07
57234;BME280;43090;52.604;13.318;2023-05-25T07:44:32;101924.94;;;17.67;56.44
57234;BME280;43090;52.604;13.318;2023-05-25T07:46:58;101916.00;;;17.87;56.09
57234;BME280;43090;52.604;13.318;2023-05-25T07:49:25;101934.06;;;18.09;56.01
57234;BME280;43090;52.604;13.318;2023-05-25T07:51:52;101933.91;;;18.11;56.57
57234;BME280;43090;52.604;13.318;2023-05-25T07:54:18;101929.72;;;18.18;54.88
57234;BME280;43090;52.604;13.318;2023-05-25T07:56:45;101931.09;;;18.55;54.36
57234;BME280;43090;52.604;13.318;2023-05-25T07:59:11;101926.03;;;18.40;53.99
57234;BME280;43090;52.604;13.318;2023-05-25T08:01:39;101933.56;;;18.58;52.40
57234;BME280;43090;52.604;13.318;2023-05-25T08:04:05;101930.75;;;18.27;52.87
57234;BME280;43090;52.604;13.318;2023-05-25T08:06:32;101920.91;;;18.05;52.35
57234;BME280;43090;52.604;13.318;2023-05-25T08:08:59;101931.00;;;18.03;52.30
57234;BME280;43090;52.604;13.318;2023-05-25T08:11:26;101926.09;;;17.85;52.07
57234;BME280;43090;52.604;13.318;2023-05-25T08:13:52;101921.91;;;17.92;54.08
57234;BME280;43090;52.604;13.318;2023-05-25T08:16:19;101924.75;;;18.23;52.31
57234;BME280;43090;52.604;13.318;2023-05-25T08:18:46;101947.31;;;18.45;50.49
57234;BME280;43090;52.604;13.318;2023-05-25T08:21:13;101932.44;;;18.18;51.04
57234;BME280;43090;52.604;13.318;2023-05-25T08:23:39;101921.66;;;18.49;49.67
57234;BME280;43090;52.604;13.318;2023-05-25T08:26:11;101934.06;;;18.09;49.08
57234;BME280;43090;52.604;13.318;2023-05-25T08:28:57;101904.44;;;17.85;50.39
57234;BME280;43090;52.604;13.318;2023-05-25T08:31:24;101918.63;;;17.66;51.78
57234;BME280;43090;52.604;13.318;2023-05-25T08:33:50;101942.09;;;17.88;52.92
57234;BME280;43090;52.604;13.318;2023-05-25T08:36:17;101936.66;;;17.33;53.51
57234;BME280;43090;52.604;13.318;2023-05-25T08:38:44;101935.44;;;17.26;50.55
57234;BME280;43090;52.604;13.318;2023-05-25T08:41:11;101926.66;;;17.56;50.99
57234;BME280;43090;52.604;13.318;2023-05-25T08:43:40;101928.25;;;17.59;50.31
57234;BME280;43090;52.604;13.318;2023-05-25T08:46:08;101925.13;;;18.19;50.32
57234;BME280;43090;52.604;13.318;2023-05-25T08:48:36;101926.72;;;17.89;49.40
57234;BME280;43090;52.604;13.318;2023-05-25T08:51:09;101930.19;;;18.44;49.09
57234;BME280;43090;52.604;13.318;2023-05-25T08:53:38;101937.69;;;18.52;47.97
57234;BME280;43090;52.604;13.318;2023-05-25T08:56:13;101939.75;;;18.06;49.21
57234;BME280;43090;52.604;13.318;2023-05-25T08:59:01;101937.31;;;18.45;47.49
57234;BME280;43090;52.604;13.318;2023-05-25T09:01:36;101928.81;;;18.50;46.86
57234;BME280;43090;52.604;13.318;2023-05-25T09:04:04;101934.69;;;18.55;47.31
57234;BME280;43090;52.604;13.318;2023-05-25T09:06:31;101938.47;;;18.22;49.86
57234;BME280;43090;52.604;13.318;2023-05-25T09:09:05;101946.75;;;17.31;53.63
57234;BME280;43090;52.604;13.318;2023-05-25T09:11:32;101931.75;;;17.04;54.97
57234;BME280;43090;52.604;13.318;2023-05-25T09:14:06;101942.31;;;17.30;53.51
57234;BME280;43090;52.604;13.318;2023-05-25T09:16:36;101940.78;;;17.71;52.47
57234;BME280;43090;52.604;13.318;2023-05-25T09:19:02;101946.81;;;17.86;51.85
57234;BME280;43090;52.604;13.318;2023-05-25T09:21:29;101951.88;;;17.79;49.02
57234;BME280;43090;52.604;13.318;2023-05-25T09:23:59;101944.50;;;17.47;51.22
57234;BME280;43090;52.604;13.318;2023-05-25T09:26:26;101944.66;;;17.57;51.08
57234;BME280;43090;52.604;13.318;2023-05-25T09:28:53;101948.25;;;17.90;49.74
57234;BME280;43090;52.604;13.318;2023-05-25T09:31:22;101958.16;;;17.69;48.59
57234;BME280;43090;52.604;13.318;2023-05-25T09:33:50;101956.38;;;17.90;49.60
57234;BME280;43090;52.604;13.318;2023-05-25T09:36:20;101946.19;;;17.71;51.02
57234;BME280;43090;52.604;13.318;2023-05-25T09:38:48;101953.47;;;17.82;50.28
57234;BME280;43090;52.604;13.318;2023-05-25T09:41:18;101959.47;;;17.86;50.80
57234;BME280;43090;52.604;13.318;2023-05-25T09:43:46;101950.75;;;17.93;51.25
57234;BME280;43090;52.604;13.318;2023-05-25T09:46:35;101957.84;;;18.06;51.34
57234;BME280;43090;52.604;13.318;2023-05-25T09:49:07;101959.25;;;17.77;51.17
57234;BME280;43090;52.604;13.318;2023-05-25T09:51:34;101959.44;;;18.08;51.13
57234;BME280;43090;52.604;13.318;2023-05-25T09:54:02;101957.63;;;18.30;49.43
57234;BME280;43090;52.604;13.318;2023-05-25T09:56:31;101956.56;;;18.21;51.26
57234;BME280;43090;52.604;13.318;2023-05-25T09:58:58;101966.13;;;18.25;54.88
57234;BME280;43090;52.604;13.318;2023-05-25T10:01:25;101965.44;;;18.12;52.38
57234;BME280;43090;52.604;13.318;2023-05-25T10:03:54;101957.25;;;18.02;53.29
57234;BME280;43090;52.604;13.318;2023-05-25T10:06:31;101969.00;;;17.46;53.30
57234;BME280;43090;52.604;13.318;2023-05-25T10:08:59;101972.69;;;17.56;53.64
57234;BME280;43090;52.604;13.318;2023-05-25T10:11:27;101973.53;;;17.68;52.81
57234;BME280;43090;52.604;13.318;2023-05-25T10:13:55;101962.41;;;17.94;55.00
57234;BME280;43090;52.604;13.318;2023-05-25T10:16:25;101974.88;;;17.85;53.25
57234;BME280;43090;52.604;13.318;2023-05-25T10:19:06;101969.44;;;17.96;51.56
57234;BME280;43090;52.604;13.318;2023-05-25T10:21:36;101971.56;;;17.93;50.94
57234;BME280;43090;52.604;13.318;2023-05-25T10:24:23;101971.69;;;17.80;50.63
57234;BME280;43090;52.604;13.318;2023-05-25T10:26:53;101968.56;;;18.07;51.93
57234;BME280;43090;52.604;13.318;2023-05-25T10:29:20;101964.50;;;18.02;50.91
57234;BME280;43090;52.604;13.318;2023-05-25T10:31:47;101972.19;;;18.18;52.82
57234;BME280;43090;52.604;13.318;2023-05-25T10:34:14;101968.28;;;18.22;49.91
57234;BME280;43090;52.604;13.318;2023-05-25T10:36:42;101968.38;;;18.53;51.01
57234;BME280;43090;52.604;13.318;2023-05-25T10:39:08;101982.41;;;18.79;49.26
57234;BME280;43090;52.604;13.318;2023-05-25T10:41:35;101959.44;;;18.62;47.42
57234;BME280;43090;52.604;13.318;2023-05-25T10:44:02;101969.28;;;18.09;49.08
57234;BME280;43090;52.604;13.318;2023-05-25T10:46:29;101965.50;;;18.01;47.30
57234;BME280;43090;52.604;13.318;2023-05-25T10:48:55;101964.91;;;17.97;48.72
57234;BME280;43090;52.604;13.318;2023-05-25T10:51:40;101960.38;;;18.19;49.00
57234;BME280;43090;52.604;13.318;2023-05-25T10:54:06;101957.38;;;17.89;50.58
57234;BME280;43090;52.604;13.318;2023-05-25T10:56:33;101960.47;;;18.28;50.52
57234;BME280;43090;52.604;13.318;2023-05-25T10:58:59;101954.09;;;18.18;52.82
57234;BME280;43090;52.604;13.318;2023-05-25T11:01:29;101950.69;;;18.58;48.24
57234;BME280;43090;52.604;13.318;2023-05-25T11:04:13;101956.13;;;18.58;48.25
57234;BME280;43090;52.604;13.318;2023-05-25T11:09:27;101957.09;;;18.78;48.70
57234;BME280;43090;52.604;13.318;2023-05-25T11:14:34;101956.13;;;18.58;48.96
57234;BME280;43090;52.604;13.318;2023-05-25T11:17:09;101954.50;;;18.35;52.28
57234;BME280;43090;52.604;13.318;2023-05-25T11:19:48;101955.41;;;18.35;50.55
57234;BME280;43090;52.604;13.318;2023-05-25T11:22:37;101958.44;;;18.63;52.07
57234;BME280;43090;52.604;13.318;2023-05-25T11:25:35;101963.63;;;18.34;52.74
57234;BME280;43090;52.604;13.318;2023-05-25T11:28:07;101954.06;;;18.93;52.04
57234;BME280;43090;52.604;13.318;2023-05-25T11:30:34;101946.66;;;18.53;51.04
57234;BME280;43090;52.604;13.318;2023-05-25T11:33:01;101983.19;;;18.48;49.85
57234;BME280;43090;52.604;13.318;2023-05-25T11:35:30;101970.84;;;18.23;51.60
57234;BME280;43090;52.604;13.318;2023-05-25T11:37:59;101964.56;;;18.44;51.65
57234;BME280;43090;52.604;13.318;2023-05-25T11:40:29;101969.84;;;18.24;52.96
57234;BME280;43090;52.604;13.318;2023-05-25T11:43:00;101961.31;;;17.96;53.64
57234;BME280;43090;52.604;13.318;2023-05-25T11:45:30;101956.50;;;18.00;53.88
57234;BME280;43090;52.604;13.318;2023-05-25T11:47:58;101963.56;;;18.24;53.80
57234;BME280;43090;52.604;13.318;2023-05-25T11:50:25;101959.72;;;17.82;53.22
57234;BME280;43090;52.604;13.318;2023-05-25T11:52:53;101978.13;;;17.68;54.58
57234;BME280;43090;52.604;13.318;2023-05-25T11:55:20;101962.66;;;17.91;56.21
57234;BME280;43090;52.604;13.318;2023-05-25T11:57:54;101961.19;;;17.87;56.71
57234;BME280;43090;52.604;13.318;2023-05-25T12:00:25;101962.81;;;17.78;58.18
57234;BME280;43090;52.604;13.318;2023-05-25T12:02:52;101954.75;;;18.10;55.40
57234;BME280;43090;52.604;13.318;2023-05-25T12:05:19;101963.38;;;18.37;56.09
57234;BME280;43090;52.604;13.318;2023-05-25T12:07:46;101955.72;;;18.09;56.52
57234;BME280;43090;52.604;13.318;2023-05-25T12:10:14;101953.97;;;17.76;56.96
57234;BME280;43090;52.604;13.318;2023-05-25T12:12:47;101957.78;;;17.73;58.58
57234;BME280;43090;52.604;13.318;2023-05-25T12:15:24;101958.31;;;17.56;58.58
57234;BME280;43090;52.604;13.318;2023-05-25T12:17:51;101956.19;;;17.59;58.22
57234;BME280;43090;52.604;13.318;2023-05-25T12:20:20;101948.59;;;17.42;59.05
57234;BME280;43090;52.604;13.318;2023-05-25T12:22:47;101936.59;;;17.78;56.80
57234;BME280;43090;52.604;13.318;2023-05-25T12:25:16;101955.22;;;18.15;58.08
57234;BME280;43090;52.604;13.318;2023-05-25T12:27:43;101953.00;;;17.65;56.80
57234;BME280;43090;52.604;13.318;2023-05-25T12:30:10;101957.91;;;17.72;55.63
57234;BME280;43090;52.604;13.318;2023-05-25T12:33:11;101960.31;;;17.97;55.54
57234;BME280;43090;52.604;13.318;2023-05-25T12:35:48;101952.38;;;18.17;55.80
57234;BME280;43090;52.604;13.318;2023-05-25T12:38:16;101954.94;;;18.72;55.20
57234;BME280;43090;52.604;13.318;2023-05-25T12:40:43;101946.84;;;18.82;53.29
57234;BME280;43090;52.604;13.318;2023-05-25T12:43:10;101944.88;;;18.63;54.71
57234;BME280;43090;52.604;13.318;2023-05-25T12:45:41;101952.44;;;18.27;54.58
57234;BME280;43090;52.604;13.318;2023-05-25T12:48:09;101953.00;;;18.21;56.92
57234;BME280;43090;52.604;13.318;2023-05-25T12:50:36;101952.41;;;18.06;57.03
57234;BME280;43090;52.604;13.318;2023-05-25T12:53:02;101944.59;;;18.24;54.78
57234;BME280;43090;52.604;13.318;2023-05-25T12:55:30;101940.97;;;18.35;54.42
57234;BME280;43090;52.604;13.318;2023-05-25T12:58:05;101937.66;;;17.98;56.88
57234;BME280;43090;52.604;13.318;2023-05-25T13:00:37;101940.13;;;18.55;52.41
57234;BME280;43090;52.604;13.318;2023-05-25T13:03:04;101945.78;;;18.94;51.69
57234;BME280;43090;52.604;13.318;2023-05-25T13:05:34;101934.28;;;18.60;53.01
57234;BME280;43090;52.604;13.318;2023-05-25T13:08:03;101937.44;;;18.86;52.81
57234;BME280;43090;52.604;13.318;2023-05-25T13:10:31;101933.88;;;19.47;52.37